Time;durP1;ratioP1;P1;durP2;ratioP2;P2;SDS_P1;SDS_P2;PMS_P1;PMS_P2;Temp;Humidity;BMP_temperature;BMP_pressure;BME280_temperature;BME280_humidity;BME280_pressure;Samples;Min_cycle;Max_cycle;Signal;HPM_P1;HPM_P2
2022/12/31 00:01:19;;;;;;;4.15;3.70;;;;;;;11.14;100.00;100297.84;5111887;28;20019;-80
2022/12/31 00:03:45;;;;;;;4.15;3.63;;;;;;;11.20;100.00;100308.91;5113453;28;20028;-80
2022/12/31 00:06:26;;;;;;;5.47;3.92;;;;;;;11.20;100.00;100301.09;5112299;28;20565;-80
2022/12/31 00:08:53;;;;;;;3.72;3.33;;;;;;;11.21;100.00;100299.31;5111688;28;20414;-79
2022/12/31 00:11:20;;;;;;;7.57;3.88;;;;;;;11.22;100.00;100298.44;5110524;28;20062;-80
2022/12/31 00:13:45;;;;;;;4.85;4.35;;;;;;;11.25;100.00;100306.16;5112166;28;20528;-80
2022/12/31 00:16:17;;;;;;;6.13;3.75;;;;;;;11.23;100.00;100308.81;5112745;28;20055;-80
2022/12/31 00:18:44;;;;;;;4.93;4.28;;;;;;;11.24;100.00;100297.47;5111994;28;20173;-80
2022/12/31 00:21:10;;;;;;;7.60;4.75;;;;;;;11.25;100.00;100299.19;5108909;28;20028;-80
2022/12/31 00:23:36;;;;;;;9.00;5.47;;;;;;;11.29;100.00;100302.53;5113148;28;20783;-80
2022/12/31 00:26:13;;;;;;;6.45;4.80;;;;;;;11.32;100.00;100310.25;5106816;28;20398;-80
2022/12/31 00:28:40;;;;;;;10.02;5.03;;;;;;;11.33;100.00;100309.34;5113048;28;20019;-79
2022/12/31 00:31:11;;;;;;;5.75;4.82;;;;;;;11.33;100.00;100303.28;5110995;28;20039;-80
2022/12/31 00:33:37;;;;;;;6.80;5.15;;;;;;;11.33;100.00;100296.28;5111471;28;20032;-80
2022/12/31 00:36:21;;;;;;;6.80;4.93;;;;;;;11.33;100.00;100283.25;5111474;28;20028;-80
2022/12/31 00:38:49;;;;;;;7.22;5.57;;;;;;;11.33;100.00;100282.41;5112981;28;20038;-80
2022/12/31 00:41:15;;;;;;;8.63;5.72;;;;;;;11.28;100.00;100266.03;5109662;28;20027;-80
2022/12/31 00:43:41;;;;;;;6.18;4.45;;;;;;;11.34;100.00;100282.34;5112675;28;20035;-80
2022/12/31 00:46:08;;;;;;;5.97;4.00;;;;;;;11.32;100.00;100285.94;5112631;28;20024;-80
2022/12/31 00:48:34;;;;;;;6.00;3.05;;;;;;;11.34;100.00;100289.31;5111663;28;20038;-79
2022/12/31 00:51:00;;;;;;;4.30;3.10;;;;;;;11.35;100.00;100289.28;5111269;28;20097;-79
2022/12/31 00:53:27;;;;;;;3.80;2.78;;;;;;;11.32;100.00;100289.38;5109532;28;20039;-80
2022/12/31 00:56:00;;;;;;;3.40;2.70;;;;;;;11.32;100.00;100288.53;5111566;28;20038;-80
2022/12/31 00:58:26;;;;;;;4.53;2.90;;;;;;;11.32;100.00;100286.78;5112687;28;20023;-80
2022/12/31 01:00:51;;;;;;;2.92;2.47;;;;;;;11.29;100.00;100271.22;5110323;28;20032;-81
2022/12/31 01:03:17;;;;;;;2.80;2.22;;;;;;;11.30;100.00;100274.69;5110305;28;20023;-80
2022/12/31 01:05:42;;;;;;;2.85;2.58;;;;;;;11.30;100.00;100272.06;5111951;28;20161;-81
2022/12/31 01:08:07;;;;;;;3.83;2.50;;;;;;;11.33;100.00;100288.47;5111065;28;20051;-80
2022/12/31 01:13:16;;;;;;;;;;;;;;;11.33;100.00;100274.56;5112545;28;20050;-80
2022/12/31 01:15:41;;;;;;;3.20;2.30;;;;;;;11.31;100.00;100264.19;5111316;28;20022;-80
2022/12/31 01:18:07;;;;;;;4.30;2.22;;;;;;;11.28;100.00;100259.09;5112586;28;20274;-80
2022/12/31 01:20:38;;;;;;;2.85;2.20;;;;;;;11.23;100.00;100253.16;5111616;28;20062;-80
2022/12/31 01:23:05;;;;;;;3.22;1.95;;;;;;;11.24;100.00;100260.94;5111824;28;20130;-80
2022/12/31 01:25:33;;;;;;;3.58;1.77;;;;;;;11.22;100.00;100267.97;5106940;28;20035;-80
2022/12/31 01:27:59;;;;;;;2.85;1.63;;;;;;;11.17;100.00;100266.44;5112565;28;20031;-80
2022/12/31 01:30:24;;;;;;;5.03;1.95;;;;;;;11.16;100.00;100268.19;5108792;28;20028;-80
2022/12/31 01:32:49;;;;;;;2.13;1.80;;;;;;;11.15;100.00;100278.66;5111936;28;20413;-80
2022/12/31 01:35:15;;;;;;;2.95;1.80;;;;;;;11.13;100.00;100278.72;5111855;28;20027;-80
2022/12/31 01:37:40;;;;;;;2.85;1.70;;;;;;;11.08;100.00;100274.56;5110335;28;20031;-80
2022/12/31 01:40:05;;;;;;;2.40;1.58;;;;;;;11.06;100.00;100264.22;5111738;28;20039;-80
2022/12/31 01:42:31;;;;;;;2.83;1.58;;;;;;;11.10;100.00;100280.59;5112089;28;20099;-80
2022/12/31 01:44:56;;;;;;;1.70;1.20;;;;;;;11.09;100.00;100287.56;5111403;28;20020;-80
2022/12/31 01:47:45;;;;;;;2.53;1.48;;;;;;;11.05;100.00;100285.09;5111815;28;20135;-80
2022/12/31 01:50:20;;;;;;;2.25;1.50;;;;;;;11.10;100.00;100304.06;5109958;28;20081;-80
2022/12/31 01:52:58;;;;;;;1.20;1.10;;;;;;;11.10;100.00;100340.59;5112902;28;20062;-80
2022/12/31 01:55:34;;;;;;;1.55;1.23;;;;;;;11.14;100.00;100344.81;5115565;28;20471;-80
2022/12/31 01:58:12;;;;;;;3.22;1.20;;;;;;;11.13;100.00;100340.50;5113522;28;20028;-80
2022/12/31 02:00:38;;;;;;;1.30;1.20;;;;;;;11.16;100.00;100335.19;5114372;28;20379;-80
2022/12/31 02:03:06;;;;;;;2.70;1.42;;;;;;;11.14;100.00;100293.47;5114434;28;20050;-80
2022/12/31 02:05:40;;;;;;;4.47;1.50;;;;;;;11.11;100.00;100284.91;5114846;28;20016;-80
2022/12/31 02:08:05;;;;;;;1.67;1.40;;;;;;;11.12;100.00;100295.31;5115858;28;20024;-80
2022/12/31 02:10:31;;;;;;;6.00;1.80;;;;;;;11.12;100.00;100302.28;5113765;28;20069;-80
2022/12/31 02:12:57;;;;;;;4.13;1.80;;;;;;;11.10;100.00;100297.09;5103083;28;20085;-80
2022/12/31 02:15:39;;;;;;;2.53;1.80;;;;;;;11.10;100.00;100302.31;5114466;28;20062;-80
2022/12/31 02:18:14;;;;;;;2.92;1.80;;;;;;;11.02;100.00;100306.97;5115450;28;20062;-79
2022/12/31 02:20:48;;;;;;;3.08;2.00;;;;;;;11.11;100.00;100327.50;5114897;28;20035;-80
2022/12/31 02:23:36;;;;;;;2.95;1.92;;;;;;;11.11;100.00;100342.28;5114627;28;20048;-79
2022/12/31 02:26:17;;;;;;;5.70;2.53;;;;;;;11.12;100.00;100346.63;5095940;28;20036;-80
2022/12/31 02:28:43;;;;;;;6.40;2.40;;;;;;;11.12;100.00;100344.88;5110208;28;20039;-80
2022/12/31 02:31:22;;;;;;;4.25;2.25;;;;;;;11.08;100.00;100343.25;5113609;28;20077;-80
2022/12/31 02:33:53;;;;;;;4.85;2.83;;;;;;;11.14;100.00;100353.47;5114700;28;20032;-80
2022/12/31 02:36:23;;;;;;;3.55;2.60;;;;;;;11.12;100.00;100344.03;5114712;28;20502;-80
2022/12/31 02:38:49;;;;;;;9.30;2.85;;;;;;;11.13;100.00;100356.16;5113420;28;20364;-79
2022/12/31 02:44:19;;;;;;;3.30;2.50;;;;;;;11.11;100.00;100366.63;5115375;28;20089;-80
2022/12/31 02:46:53;;;;;;;;;;;;;;;11.14;100.00;100361.31;5114933;28;20114;-80
2022/12/31 02:49:42;;;;;;;5.70;2.72;;;;;;;11.14;100.00;100363.06;5113744;28;19959;-80
2022/12/31 02:52:30;;;;;;;6.63;2.90;;;;;;;11.11;100.00;100353.56;5097109;28;20104;-81
2022/12/31 02:55:14;;;;;;;4.80;3.10;;;;;;;11.11;100.00;100348.34;5109199;28;20047;-81
2022/12/31 02:57:46;;;;;;;7.28;3.03;;;;;;;11.06;100.00;100341.63;5115423;28;20084;-81
2022/12/31 03:03:00;;;;;;;5.68;3.42;;;;;;;11.06;100.00;100344.22;5114805;28;20039;-81
2022/12/31 03:05:29;;;;;;;5.70;3.70;;;;;;;11.04;100.00;100340.81;5112396;28;20080;-81
2022/12/31 03:07:55;;;;;;;5.75;3.78;;;;;;;11.04;100.00;100332.97;5113180;28;20111;-81
2022/12/31 03:10:20;;;;;;;4.72;3.53;;;;;;;11.00;100.00;100330.47;5112376;28;20110;-81
2022/12/31 03:12:46;;;;;;;9.48;3.72;;;;;;;11.01;100.00;100324.34;5114349;28;20403;-81
2022/12/31 03:15:32;;;;;;;5.78;3.30;;;;;;;10.99;100.00;100328.78;5113249;28;20031;-81
2022/12/31 03:17:57;;;;;;;5.47;3.13;;;;;;;11.02;100.00;100325.22;5114404;28;20106;-81
2022/12/31 03:23:36;;;;;;;4.43;3.08;;;;;;;11.00;100.00;100319.19;5113446;28;20123;-81
2022/12/31 03:26:10;;;;;;;4.43;2.90;;;;;;;10.99;100.00;100307.91;5103301;28;20122;-81
2022/12/31 03:28:36;;;;;;;5.82;3.00;;;;;;;10.98;100.00;100310.56;5113229;28;20023;-81
2022/12/31 03:31:02;;;;;;;4.57;2.90;;;;;;;10.99;100.00;100312.28;5107441;28;20035;-81
2022/12/31 03:33:37;;;;;;;7.15;3.28;;;;;;;10.98;100.00;100313.16;5114171;28;20358;-80
2022/12/31 03:36:08;;;;;;;5.40;3.33;;;;;;;10.93;100.00;100300.28;5112276;28;20142;-81
2022/12/31 03:38:33;;;;;;;5.95;3.25;;;;;;;10.92;100.00;100295.97;5113367;28;20035;-81
2022/12/31 03:40:59;;;;;;;4.35;3.03;;;;;;;10.91;100.00;100289.03;5113156;28;20092;-80
2022/12/31 03:43:24;;;;;;;5.97;2.97;;;;;;;10.96;100.00;100302.78;5113437;28;20032;-80
2022/12/31 03:45:51;;;;;;;5.28;2.80;;;;;;;10.95;100.00;100289.78;5113061;28;20028;-80
2022/12/31 03:48:17;;;;;;;4.18;2.70;;;;;;;10.92;100.00;100285.56;5113372;28;20102;-80
2022/12/31 03:50:43;;;;;;;3.45;2.50;;;;;;;10.91;100.00;100281.22;5109903;28;20038;-80
2022/12/31 03:53:09;;;;;;;3.90;2.45;;;;;;;10.88;100.00;100270.03;5113748;28;20020;-81
2022/12/31 03:55:34;;;;;;;3.20;2.00;;;;;;;10.95;100.00;100277.63;5114291;28;20023;-80
2022/12/31 03:57:59;;;;;;;3.97;2.10;;;;;;;10.97;100.00;100277.56;5113050;28;20028;-80
2022/12/31 04:00:25;;;;;;;2.60;2.05;;;;;;;10.93;100.00;100266.38;5111968;28;20103;-80
2022/12/31 04:02:50;;;;;;;2.33;1.73;;;;;;;10.96;100.00;100274.09;5111991;28;20476;-80
2022/12/31 04:05:17;;;;;;;2.53;1.50;;;;;;;10.98;100.00;100274.03;5112167;28;20031;-80
2022/12/31 04:07:42;;;;;;;1.92;1.50;;;;;;;10.93;100.00;100255.94;5113905;28;20028;-80
2022/12/31 04:10:11;;;;;;;2.97;1.50;;;;;;;11.04;100.00;100272.97;5111828;28;20030;-81
2022/12/31 04:12:36;;;;;;;4.38;1.85;;;;;;;11.10;100.00;100263.19;5112282;28;20019;-80
2022/12/31 04:15:03;;;;;;;4.00;1.80;;;;;;;11.14;100.00;100264.78;5112848;28;20031;-80
2022/12/31 04:17:29;;;;;;;3.47;1.70;;;;;;;11.14;100.00;100259.56;5113078;28;20043;-80
2022/12/31 04:19:54;;;;;;;4.28;2.20;;;;;;;11.33;100.00;100267.59;5111542;28;20031;-81
2022/12/31 04:22:20;;;;;;;3.45;2.10;;;;;;;11.37;100.00;100261.34;5111346;28;20020;-80
2022/12/31 04:24:45;;;;;;;7.53;2.22;;;;;;;11.45;100.00;100259.34;5112264;28;20540;-81
2022/12/31 04:27:12;;;;;;;4.22;2.25;;;;;;;11.54;100.00;100262.50;5095936;28;20035;-80
2022/12/31 04:29:37;;;;;;;5.75;2.22;;;;;;;11.59;100.00;100250.13;5094029;28;20038;-80
2022/12/31 04:32:04;;;;;;;10.70;2.90;;;;;;;11.71;100.00;100250.53;5098162;28;20863;-80
2022/12/31 04:34:29;;;;;;;5.82;2.40;;;;;;;11.71;100.00;100231.41;5092781;28;20028;-80
2022/12/31 04:36:55;;;;;;;8.75;2.80;;;;;;;11.79;100.00;100241.56;5097856;28;20107;-80
2022/12/31 04:39:20;;;;;;;7.97;2.80;;;;;;;11.89;100.00;100237.72;5094133;28;20448;-80
2022/12/31 04:41:45;;;;;;;10.88;3.20;;;;;;;11.97;100.00;100234.78;5102047;28;20524;-80
2022/12/31 04:44:11;;;;;;;10.07;2.70;;;;;;;12.02;100.00;100251.16;5098724;28;20471;-80
2022/12/31 04:46:36;;;;;;;9.38;3.13;;;;;;;12.08;100.00;100258.75;5101363;28;20051;-80
2022/12/31 04:49:01;;;;;;;9.80;3.17;;;;;;;12.07;100.00;100263.13;5104079;28;20026;-80
2022/12/31 04:51:28;;;;;;;9.43;3.10;;;;;;;12.14;100.00;100279.44;5093590;28;20050;-80
2022/12/31 04:53:54;;;;;;;8.98;2.50;;;;;;;12.16;100.00;100262.78;5104680;28;20475;-80
2022/12/31 04:56:19;;;;;;;6.97;2.47;;;;;;;12.16;100.00;100268.00;5097479;28;20042;-80
2022/12/31 04:58:45;;;;;;;9.05;3.10;;;;;;;12.18;100.00;100283.63;5097445;28;20477;-80
2022/12/31 05:01:11;;;;;;;6.43;2.75;;;;;;;12.20;100.00;100292.25;5097856;28;20024;-80
2022/12/31 05:03:36;;;;;;;4.88;2.22;;;;;;;12.22;100.00;100282.56;5090937;28;20372;-81
2022/12/31 05:06:04;;;;;;;6.72;2.53;;;;;;;12.24;100.00;100304.28;5093671;28;20164;-80
2022/12/31 05:08:30;;;;;;;8.50;2.42;;;;;;;12.24;100.00;100293.84;5100309;28;20482;-80
2022/12/31 05:10:56;;;;;;;8.65;2.85;;;;;;;12.26;100.00;100286.78;5094308;28;20027;-80
2022/12/31 05:13:21;;;;;;;6.35;2.03;;;;;;;12.27;100.00;100293.72;5099447;28;20024;-80
2022/12/31 05:15:47;;;;;;;4.68;2.20;;;;;;;12.34;100.00;100292.56;5099454;28;20040;-80
2022/12/31 05:18:12;;;;;;;6.57;2.15;;;;;;;12.34;100.00;100287.34;5091725;28;20093;-80
2022/12/31 05:20:38;;;;;;;5.40;1.83;;;;;;;12.37;100.00;100299.44;5101452;28;20156;-80
2022/12/31 05:23:03;;;;;;;6.38;1.70;;;;;;;12.35;100.00;100291.63;5102915;28;20064;-80
2022/12/31 05:25:28;;;;;;;7.57;2.03;;;;;;;12.44;100.00;100320.97;5103359;28;20069;-80
2022/12/31 05:27:54;;;;;;;4.50;1.77;;;;;;;12.37;100.00;100281.13;5099665;28;20476;-80
2022/12/31 05:30:20;;;;;;;4.65;1.48;;;;;;;12.47;100.00;100319.06;5096417;28;20027;-80
2022/12/31 05:32:46;;;;;;;4.55;1.40;;;;;;;12.46;100.00;100313.88;5095985;28;20027;-80
2022/12/31 05:35:11;;;;;;;3.55;1.63;;;;;;;12.49;100.00;100332.94;5102413;28;20032;-80
2022/12/31 05:37:37;;;;;;;4.20;1.27;;;;;;;12.47;100.00;100326.06;5102493;28;20028;-80
2022/12/31 05:40:03;;;;;;;4.28;1.35;;;;;;;12.50;100.00;100332.03;5097027;28;20490;-80
2022/12/31 05:42:28;;;;;;;2.85;1.27;;;;;;;12.51;100.00;100318.03;5093231;28;20057;-80
2022/12/31 05:44:54;;;;;;;4.50;1.42;;;;;;;12.48;100.00;100336.44;5098043;28;20446;-80
2022/12/31 05:47:20;;;;;;;4.03;1.35;;;;;;;12.47;100.00;100334.75;5091662;28;20035;-80
2022/12/31 05:49:45;;;;;;;4.00;1.40;;;;;;;12.49;100.00;100332.06;5092980;28;20035;-80
2022/12/31 05:52:10;;;;;;;2.58;1.30;;;;;;;12.49;100.00;100316.38;5092501;28;20425;-80
2022/12/31 05:54:35;;;;;;;5.43;1.35;;;;;;;12.49;100.00;100312.03;5090526;28;20097;-80
2022/12/31 05:57:02;;;;;;;2.15;1.10;;;;;;;12.52;100.00;100321.50;5101011;28;20032;-80
2022/12/31 05:59:27;;;;;;;4.50;1.20;;;;;;;12.53;100.00;100325.81;5100733;28;20111;-80
2022/12/31 06:01:53;;;;;;;1.75;1.00;;;;;;;12.50;100.00;100318.94;5097255;28;20520;-80
2022/12/31 06:04:18;;;;;;;4.10;1.33;;;;;;;12.56;100.00;100317.88;5097335;28;20027;-80
2022/12/31 06:06:44;;;;;;;4.25;1.40;;;;;;;12.52;100.00;100324.94;5101590;28;20028;-80
2022/12/31 06:09:09;;;;;;;3.80;1.05;;;;;;;12.52;100.00;100345.03;5098652;28;20115;-80
2022/12/31 06:11:34;;;;;;;4.70;1.00;;;;;;;12.58;100.00;100335.16;5092254;28;20118;-80
2022/12/31 06:14:00;;;;;;;3.80;1.13;;;;;;;12.54;100.00;100330.97;5097182;28;20038;-80
2022/12/31 06:16:25;;;;;;;5.22;0.90;;;;;;;12.58;100.00;100342.16;5089446;28;20032;-81
2022/12/31 06:18:51;;;;;;;3.70;1.08;;;;;;;12.56;100.00;100344.00;5087724;28;20036;-80
2022/12/31 06:21:18;;;;;;;2.95;0.90;;;;;;;12.64;100.00;100357.63;5091819;28;20409;-81
2022/12/31 06:23:43;;;;;;;1.77;0.93;;;;;;;12.63;100.00;100340.22;5086167;28;20020;-80
2022/12/31 06:26:08;;;;;;;1.33;1.00;;;;;;;12.69;100.00;100355.69;5102325;28;20096;-80
2022/12/31 06:28:34;;;;;;;2.28;0.70;;;;;;;12.68;100.00;100353.97;5109752;28;20055;-80
2022/12/31 06:31:05;;;;;;;4.82;0.93;;;;;;;12.73;100.00;100359.88;5109134;28;20016;-81
2022/12/31 06:33:31;;;;;;;4.93;1.20;;;;;;;12.80;100.00;100358.72;5109052;28;20027;-80
2022/12/31 06:36:01;;;;;;;2.88;0.60;;;;;;;12.78;100.00;100357.91;5108256;28;20020;-80
2022/12/31 06:38:29;;;;;;;1.20;0.90;;;;;;;12.77;100.00;100360.59;5106211;28;20439;-81
2022/12/31 06:40:54;;;;;;;7.15;0.95;;;;;;;12.77;100.00;100353.59;5110154;28;20016;-80
2022/12/31 06:43:20;;;;;;;4.38;0.80;;;;;;;12.75;100.00;100365.03;5111687;28;20475;-80
2022/12/31 06:45:45;;;;;;;4.90;1.00;;;;;;;12.76;100.00;100349.28;5111130;28;20031;-80
2022/12/31 06:48:11;;;;;;;1.30;0.80;;;;;;;12.79;100.00;100367.47;5111289;28;20023;-81
2022/12/31 06:50:36;;;;;;;3.33;0.88;;;;;;;12.75;100.00;100355.44;5111785;28;20068;-80
2022/12/31 06:53:02;;;;;;;1.65;0.88;;;;;;;12.77;100.00;100357.97;5111136;28;20016;-80
2022/12/31 06:55:27;;;;;;;1.65;0.70;;;;;;;12.84;100.00;100368.13;5111102;28;20063;-80
2022/12/31 06:57:53;;;;;;;4.00;1.10;;;;;;;12.89;100.00;100352.25;5111821;28;20019;-80
2022/12/31 07:00:19;;;;;;;2.92;1.00;;;;;;;12.92;100.00;100382.69;5109145;28;20035;-80
2022/12/31 07:03:06;;;;;;;4.95;1.10;;;;;;;12.98;100.00;100367.59;5111326;28;20434;-79
2022/12/31 07:06:00;;;;;;;3.80;0.82;;;;;;;12.96;100.00;100352.88;5109469;28;20433;-80
2022/12/31 07:08:59;;;;;;;3.15;0.95;;;;;;;13.06;100.00;100354.19;5098268;28;20043;-79
2022/12/31 07:11:37;;;;;;;2.50;0.75;;;;;;;13.11;100.00;100368.78;5114446;28;20032;-80
2022/12/31 07:14:10;;;;;;;3.75;0.85;;;;;;;13.15;100.00;100379.97;5112531;28;20035;-80
2022/12/31 07:16:58;;;;;;;2.55;0.80;;;;;;;13.20;100.00;100375.38;5111551;28;20031;-80
2022/12/31 07:19:35;;;;;;;3.92;1.10;;;;;;;13.27;100.00;100384.72;5112052;28;20059;-79
2022/12/31 07:22:01;;;;;;;4.68;1.20;;;;;;;13.25;100.00;100370.84;5111603;28;20046;-79
2022/12/31 07:24:27;;;;;;;2.58;1.00;;;;;;;13.30;100.00;100363.63;5111208;28;20023;-80
2022/12/31 07:27:23;;;;;;;4.38;0.90;;;;;;;13.31;100.00;100370.59;5110678;28;20035;-79
2022/12/31 07:29:58;;;;;;;4.57;1.10;;;;;;;13.33;100.00;100379.22;5112063;28;20019;-80
2022/12/31 07:33:01;;;;;;;4.82;1.15;;;;;;;13.34;100.00;100386.19;5107044;28;20035;-80
2022/12/31 07:35:54;;;;;;;15.02;2.28;;;;;;;13.38;100.00;100386.06;5109469;28;20039;-79
2022/12/31 07:38:52;;;;;;;5.43;1.15;;;;;;;13.35;100.00;100406.19;5111011;28;20027;-80
2022/12/31 07:41:27;;;;;;;4.10;1.10;;;;;;;13.30;100.00;100386.34;5091426;28;20067;-79
2022/12/31 07:44:16;;;;;;;4.55;1.25;;;;;;;13.30;100.00;100400.28;5108252;28;20114;-80
2022/12/31 07:46:53;;;;;;;3.53;1.13;;;;;;;13.30;100.00;100396.81;5092612;28;20093;-79
2022/12/31 07:49:18;;;;;;;3.22;1.10;;;;;;;13.21;100.00;100398.06;5109805;28;20094;-79
2022/12/31 07:51:44;;;;;;;3.10;1.10;;;;;;;13.10;100.00;100393.22;5111934;28;20438;-79
2022/12/31 07:54:09;;;;;;;5.78;1.27;;;;;;;13.02;100.00;100384.88;5110721;28;20463;-79
2022/12/31 07:56:35;;;;;;;3.28;1.20;;;;;;;12.99;100.00;100394.59;5111055;28;20123;-79
2022/12/31 07:59:28;;;;;;;4.78;1.52;;;;;;;12.93;100.00;100390.47;5111296;28;20024;-79
2022/12/31 08:02:19;;;;;;;3.27;1.03;;;;;;;12.88;100.00;100374.97;5110860;28;20075;-79
2022/12/31 08:05:25;;;;;;;7.03;1.30;;;;;;;12.94;100.00;100404.38;5111314;28;20851;-79
2022/12/31 08:08:04;;;;;;;3.13;0.90;;;;;;;12.88;100.00;100408.09;5112924;28;20015;-79
2022/12/31 08:10:55;;;;;;;4.82;1.60;;;;;;;12.91;100.00;100412.34;5101684;28;20054;-79
2022/12/31 08:13:20;;;;;;;3.83;1.33;;;;;;;12.89;100.00;100446.44;5112430;28;20156;-79
2022/12/31 08:15:45;;;;;;;4.85;1.30;;;;;;;12.90;100.00;100437.69;5113223;28;20118;-78
2022/12/31 08:18:11;;;;;;;4.93;1.48;;;;;;;12.83;100.00;100452.75;5109062;28;20050;-79
2022/12/31 08:20:48;;;;;;;5.97;1.65;;;;;;;12.82;100.00;100452.84;5113551;28;20502;-79
2022/12/31 08:23:27;;;;;;;1.80;1.30;;;;;;;12.76;100.00;100466.16;5109900;28;20032;-80
2022/12/31 08:26:11;;;;;;;3.80;1.52;;;;;;;12.74;100.00;100468.81;5098600;28;20052;-78
2022/12/31 08:28:43;;;;;;;;;;;;;;;12.70;100.00;100476.84;5093317;28;20099;-79
2022/12/31 08:31:19;;;;;;;3.15;1.08;;;;;;;12.66;100.00;100481.34;5091059;28;20729;-80
2022/12/31 08:33:59;;;;;;;3.22;1.40;;;;;;;12.70;100.00;100490.75;5092564;28;20016;-80
2022/12/31 08:36:46;;;;;;;2.92;1.25;;;;;;;12.72;100.00;100507.25;5092688;28;20022;-79
2022/12/31 08:39:43;;;;;;;3.78;2.13;;;;;;;12.76;100.00;100508.00;5088981;28;20110;-80
2022/12/31 08:42:20;;;;;;;4.85;1.40;;;;;;;12.72;100.00;100515.09;5049340;28;20040;-79
2022/12/31 08:45:03;;;;;;;6.00;1.40;;;;;;;12.77;100.00;100517.53;5093098;28;20058;-79
2022/12/31 08:47:35;;;;;;;5.53;1.27;;;;;;;12.75;100.00;100517.63;5091398;28;20031;-79
2022/12/31 08:50:00;;;;;;;3.50;1.30;;;;;;;12.74;100.00;100528.97;5092253;28;20028;-80
2022/12/31 08:52:26;;;;;;;3.67;1.40;;;;;;;12.53;100.00;100487.94;5090086;28;20024;-79
2022/12/31 08:54:52;;;;;;;4.60;1.73;;;;;;;12.76;100.00;100535.00;5092168;28;20040;-79
2022/12/31 08:57:33;;;;;;;3.25;1.38;;;;;;;12.83;100.00;100548.69;5090421;28;20379;-79
2022/12/31 09:00:14;;;;;;;2.03;1.15;;;;;;;12.81;100.00;100547.91;5086735;28;20034;-80
2022/12/31 09:03:05;;;;;;;3.83;1.30;;;;;;;12.80;100.00;100557.50;5090431;28;20024;-80
2022/12/31 09:05:52;;;;;;;4.95;1.60;;;;;;;12.82;100.00;100578.41;5091837;28;20039;-80
2022/12/31 09:09:02;;;;;;;4.10;1.38;;;;;;;12.79;100.00;100583.75;5091000;28;20099;-80
2022/12/31 09:11:49;;;;;;;4.05;1.70;;;;;;;12.79;100.00;100581.97;4990096;28;20050;-79
2022/12/31 09:14:21;;;;;;;8.13;1.60;;;;;;;12.77;100.00;100578.56;5074984;28;20032;-80
2022/12/31 09:17:26;;;;;;;3.00;1.55;;;;;;;12.74;100.00;100589.13;5090344;28;20028;-80
2022/12/31 09:19:51;;;;;;;4.72;1.80;;;;;;;12.73;100.00;100599.66;5088738;28;20031;-80
2022/12/31 09:22:17;;;;;;;4.43;1.55;;;;;;;12.73;100.00;100600.50;5088808;28;20127;-80
2022/12/31 09:24:43;;;;;;;4.25;1.40;;;;;;;12.71;100.00;100610.16;5093734;28;20035;-80
2022/12/31 09:27:21;;;;;;;6.07;1.70;;;;;;;12.71;100.00;100606.69;5106498;28;20479;-80
2022/12/31 09:29:58;;;;;;;3.97;1.90;;;;;;;12.71;100.00;100620.63;5111818;28;20036;-80
2022/12/31 09:32:46;;;;;;;5.30;1.85;;;;;;;12.67;100.00;100600.72;5109458;28;20024;-80
2022/12/31 09:35:18;;;;;;;5.22;1.85;;;;;;;12.74;100.00;100610.06;5109368;28;20050;-79
2022/12/31 09:37:50;;;;;;;9.65;2.30;;;;;;;12.62;100.00;100602.63;5108579;28;20075;-80
2022/12/31 09:40:27;;;;;;;9.52;1.83;;;;;;;12.74;100.00;100630.13;5108956;28;20439;-80
2022/12/31 09:43:07;;;;;;;4.68;1.63;;;;;;;12.82;100.00;100622.88;5106178;28;20516;-80
2022/12/31 09:45:36;;;;;;;7.15;2.00;;;;;;;12.77;100.00;100630.88;5105372;28;20080;-80
2022/12/31 09:48:41;;;;;;;7.47;1.98;;;;;;;12.78;100.00;100637.78;5110759;28;20023;-80
2022/12/31 09:51:29;;;;;;;8.88;2.35;;;;;;;12.79;100.00;100618.59;5112402;28;20016;-80
2022/12/31 09:54:04;;;;;;;4.25;1.70;;;;;;;12.79;100.00;100617.75;5112402;28;20016;-80
2022/12/31 09:56:38;;;;;;;4.38;1.48;;;;;;;12.82;100.00;100618.50;5111153;28;20027;-80
2022/12/31 09:59:42;;;;;;;6.75;1.92;;;;;;;12.83;100.00;100621.97;5112352;28;20019;-80
2022/12/31 10:02:58;;;;;;;3.88;1.75;;;;;;;12.88;100.00;100623.50;5082300;28;20114;-80
2022/12/31 10:05:44;;;;;;;4.18;1.50;;;;;;;12.92;100.00;100639.09;5101238;28;20035;-80
2022/12/31 10:08:37;;;;;;;6.90;1.80;;;;;;;12.94;100.00;100639.88;5111780;28;20019;-80
2022/12/31 10:11:02;;;;;;;4.75;1.65;;;;;;;12.94;100.00;100630.25;5111238;28;20023;-80
2022/12/31 10:13:45;;;;;;;8.32;1.70;;;;;;;12.94;100.00;100643.34;5112126;28;20394;-80
2022/12/31 10:16:32;;;;;;;6.68;1.63;;;;;;;12.99;100.00;100646.66;5115447;28;20091;-80
2022/12/31 10:19:19;;;;;;;5.35;1.90;;;;;;;13.04;100.00;100636.00;5115900;28;20036;-80
2022/12/31 10:21:57;;;;;;;10.23;1.90;;;;;;;13.01;100.00;100626.50;5115934;28;20083;-79
2022/12/31 10:24:29;;;;;;;6.03;1.95;;;;;;;13.10;100.00;100648.88;5114412;28;20043;-80
2022/12/31 10:27:02;;;;;;;6.70;1.77;;;;;;;13.11;100.00;100630.50;5109017;28;20055;-80
2022/12/31 10:29:39;;;;;;;5.32;2.08;;;;;;;13.11;100.00;100622.66;5115215;28;20070;-79
2022/12/31 10:32:34;;;;;;;4.82;1.70;;;;;;;13.03;100.00;100597.66;5114423;28;20023;-80
2022/12/31 10:35:12;;;;;;;8.77;2.08;;;;;;;13.05;100.00;100604.56;5108373;28;20039;-79
2022/12/31 10:37:56;;;;;;;5.70;1.80;;;;;;;13.11;100.00;100603.44;5111548;28;20036;-81
2022/12/31 10:40:48;;;;;;;5.35;2.10;;;;;;;13.10;100.00;100609.59;5110965;28;20047;-81
2022/12/31 10:43:30;;;;;;;7.60;1.95;;;;;;;13.17;100.00;100624.16;5109212;28;20067;-79
2022/12/31 10:46:05;;;;;;;6.75;1.90;;;;;;;13.07;100.00;100599.25;5112419;28;20023;-80
2022/12/31 10:48:52;;;;;;;4.50;1.67;;;;;;;13.17;100.00;100618.94;5114318;28;20035;-79
2022/12/31 10:51:49;;;;;;;4.15;1.67;;;;;;;13.16;100.00;100622.47;5114903;27;20027;-79
2022/12/31 10:54:32;;;;;;;7.90;1.70;;;;;;;13.20;100.00;100639.75;5041421;28;20065;-80
2022/12/31 10:57:18;;;;;;;6.45;1.70;;;;;;;13.04;100.00;100615.91;5115217;28;20035;-81
2022/12/31 11:00:10;;;;;;;4.38;1.70;;;;;;;13.12;100.00;100629.59;5114520;28;20081;-80
2022/12/31 11:03:00;;;;;;;6.57;2.00;;;;;;;13.11;100.00;100629.63;5114446;28;20031;-80
2022/12/31 11:05:52;;;;;;;8.40;1.77;;;;;;;13.15;100.00;100639.09;5114232;28;20059;-80
2022/12/31 11:08:39;;;;;;;6.00;1.90;;;;;;;13.16;100.00;100651.25;5113629;28;20099;-79
2022/12/31 11:11:10;;;;;;;7.47;1.83;;;;;;;13.18;100.00;100644.22;5113990;28;20023;-80
2022/12/31 11:14:13;;;;;;;5.28;1.65;;;;;;;13.22;100.00;100639.72;5113222;28;20020;-81
2022/12/31 11:17:01;;;;;;;5.33;1.87;;;;;;;13.25;100.00;100657.97;5083451;28;20070;-80
2022/12/31 11:19:42;;;;;;;7.15;1.60;;;;;;;13.35;100.00;100651.47;5113199;28;20024;-80
2022/12/31 11:22:19;;;;;;;9.55;2.05;;;;;;;13.37;100.00;100654.84;5110555;28;20053;-80
2022/12/31 11:25:27;;;;;;;5.00;1.92;;;;;;;13.34;100.00;100632.28;5114342;28;20054;-79
2022/12/31 11:28:25;;;;;;;5.95;1.67;;;;;;;13.35;100.00;100643.59;5106462;28;20226;-79
2022/12/31 11:30:59;;;;;;;6.45;1.80;;;;;;;13.35;100.00;100654.09;5114265;28;20034;-80
2022/12/31 11:33:46;;;;;;;7.07;1.65;;;;;;;13.37;100.00;100656.63;5111143;28;20028;-79
2022/12/31 11:36:45;;;;;;;5.60;1.83;;;;;;;13.41;100.00;100664.31;5112736;28;20475;-80
2022/12/31 11:39:33;;;;;;;6.13;1.85;;;;;;;13.48;100.00;100657.94;5109116;28;20042;-79
2022/12/31 11:42:15;;;;;;;9.15;1.63;;;;;;;13.49;100.00;100650.94;5112483;28;20479;-79
2022/12/31 11:45:14;;;;;;;6.50;1.77;;;;;;;13.52;100.00;100677.00;5102843;28;20463;-78
2022/12/31 11:48:03;;;;;;;8.15;2.15;;;;;;;13.64;100.00;100650.34;5065177;28;20035;-80
2022/12/31 11:50:49;;;;;;;9.13;1.98;;;;;;;13.56;100.00;100649.78;5111969;28;20034;-78
2022/12/31 11:53:29;;;;;;;5.15;1.60;;;;;;;13.43;100.00;100656.41;5108007;28;20053;-78
2022/12/31 11:56:14;;;;;;;5.53;1.80;;;;;;;13.31;100.00;100642.88;5111079;28;20027;-78
2022/12/31 11:58:50;;;;;;;10.00;1.95;;;;;;;13.26;100.00;100647.41;5111032;28;20123;-78